createdAt,value
2022-10-19T00:02:09.207Z,49.31
2022-10-19T00:04:35.904Z,49.34
2022-10-19T00:07:02.447Z,49.29
2022-10-19T00:09:29.348Z,49.29
2022-10-19T00:11:55.893Z,49.33
2022-10-19T00:14:23.913Z,49.28
2022-10-19T00:16:51.920Z,49.22
2022-10-19T00:19:22.170Z,49.31
2022-10-19T00:21:51.997Z,49.33
2022-10-19T00:24:19.091Z,49.28
2022-10-19T00:26:45.693Z,49.06
2022-10-19T00:29:13.960Z,49.23
2022-10-19T00:31:40.767Z,49.22
2022-10-19T00:34:07.384Z,49.13
2022-10-19T00:36:37.358Z,49.47
2022-10-19T00:39:05.640Z,49.26
2022-10-19T00:41:35.920Z,49.18
2022-10-19T00:44:06.052Z,49.18
2022-10-19T00:46:38.789Z,49.05
2022-10-19T00:49:10.720Z,49.33
2022-10-19T00:51:40.665Z,49.06
2022-10-19T00:54:08.422Z,49.29
2022-10-19T00:56:35.083Z,49.34
2022-10-19T00:59:05.724Z,49.03
2022-10-19T01:01:33.181Z,49.12
2022-10-19T01:04:01.029Z,49.31
2022-10-19T01:06:27.746Z,49.15
2022-10-19T01:08:54.281Z,49.15
2022-10-19T01:11:35.564Z,49.18
2022-10-19T01:14:10.040Z,48.97
2022-10-19T01:16:58.271Z,49.28
2022-10-19T01:19:52.482Z,49.06
2022-10-19T01:22:33.857Z,48.96
2022-10-19T01:25:21.742Z,49.44
2022-10-19T01:28:16.137Z,49.04
2022-10-19T01:31:02.277Z,49.14
2022-10-19T01:33:54.385Z,49.07
2022-10-19T01:36:30.316Z,49.28
2022-10-19T01:39:08.919Z,48.83
2022-10-19T01:41:58.527Z,49.21
2022-10-19T01:44:35.932Z,49.01
2022-10-19T01:47:17.356Z,49.22
2022-10-19T01:49:46.725Z,49.24
2022-10-19T01:52:15.889Z,49.10
2022-10-19T01:54:45.357Z,49.22
2022-10-19T01:57:13.272Z,48.98
2022-10-19T01:59:40.012Z,49.21
2022-10-19T02:02:09.142Z,49.16
2022-10-19T02:04:36.780Z,49.27
2022-10-19T02:07:04.749Z,48.81
2022-10-19T02:09:31.469Z,49.34
2022-10-19T02:12:01.002Z,49.21
2022-10-19T02:14:30.421Z,49.06
2022-10-19T02:17:05.686Z,48.98
2022-10-19T02:19:32.646Z,49.21
2022-10-19T02:21:59.425Z,48.94
2022-10-19T02:24:25.983Z,49.20
2022-10-19T02:26:53.268Z,49.02
2022-10-19T02:29:19.962Z,49.22
2022-10-19T02:31:46.526Z,49.22
2022-10-19T02:34:13.472Z,49.08
2022-10-19T02:36:40.239Z,49.07
2022-10-19T02:39:07.406Z,49.08
2022-10-19T02:41:40.868Z,49.40
2022-10-19T02:44:13.813Z,49.26
2022-10-19T02:46:54.533Z,49.10
2022-10-19T02:49:21.540Z,48.96
2022-10-19T02:52:00.594Z,49.20
2022-10-19T02:54:27.978Z,49.00
2022-10-19T02:56:54.993Z,48.96
2022-10-19T02:59:21.597Z,49.19
2022-10-19T03:01:48.140Z,49.06
2022-10-19T03:04:14.700Z,49.36
2022-10-19T03:06:41.257Z,48.95
2022-10-19T03:09:07.856Z,49.21
2022-10-19T03:11:34.393Z,49.29
2022-10-19T03:14:00.909Z,48.95
2022-10-19T03:16:27.460Z,49.45
2022-10-19T03:18:54.844Z,48.98
2022-10-19T03:21:21.422Z,49.27
2022-10-19T03:23:47.990Z,49.21
2022-10-19T03:26:16.427Z,49.24
2022-10-19T03:28:43.137Z,49.44
2022-10-19T03:31:09.743Z,49.08
2022-10-19T03:33:36.263Z,49.23
2022-10-19T03:36:24.266Z,49.25
2022-10-19T03:38:54.619Z,49.04
2022-10-19T03:41:22.621Z,49.01
2022-10-19T03:43:49.364Z,49.41
2022-10-19T03:46:16.262Z,49.41
2022-10-19T03:48:43.019Z,48.84
2022-10-19T03:51:12.456Z,49.13
2022-10-19T03:53:40.596Z,49.14
2022-10-19T03:56:17.766Z,49.03
2022-10-19T03:58:46.950Z,49.43
2022-10-19T04:01:16.168Z,49.28
2022-10-19T04:03:43.222Z,49.38
2022-10-19T04:06:21.220Z,49.14
2022-10-19T04:08:49.578Z,49.03
2022-10-19T04:11:17.569Z,49.29
2022-10-19T04:13:44.111Z,49.04
2022-10-19T04:16:13.593Z,49.44
2022-10-19T04:18:40.149Z,49.27
2022-10-19T04:21:07.224Z,49.00
2022-10-19T04:23:35.548Z,49.31
2022-10-19T04:26:04.229Z,48.96
2022-10-19T04:28:30.950Z,49.30
2022-10-19T04:30:57.823Z,49.10
2022-10-19T04:33:24.442Z,49.37
2022-10-19T04:35:50.985Z,49.45
2022-10-19T04:38:17.538Z,49.06
2022-10-19T04:40:44.075Z,49.14
2022-10-19T04:43:10.592Z,49.24
2022-10-19T04:45:37.141Z,49.35
2022-10-19T04:48:03.795Z,49.42
2022-10-19T04:50:30.339Z,49.12
2022-10-19T04:52:56.928Z,49.43
2022-10-19T04:55:23.512Z,48.99
2022-10-19T04:57:50.099Z,49.15
2022-10-19T05:00:16.993Z,49.22
2022-10-19T05:02:44.841Z,49.13
2022-10-19T05:05:12.866Z,49.13
2022-10-19T05:07:39.481Z,49.14
2022-10-19T05:10:07.377Z,49.24
2022-10-19T05:12:36.917Z,49.00
2022-10-19T05:15:04.108Z,48.94
2022-10-19T05:17:33.749Z,49.32
2022-10-19T05:20:00.469Z,49.21
2022-10-19T05:22:27.051Z,49.07
2022-10-19T05:24:57.353Z,49.15
2022-10-19T05:27:24.836Z,49.08
2022-10-19T05:29:51.384Z,49.24
2022-10-19T05:32:17.950Z,48.94
2022-10-19T05:34:44.477Z,49.26
2022-10-19T05:37:11.046Z,48.95
2022-10-19T05:39:37.575Z,49.33
2022-10-19T05:42:04.252Z,49.24
2022-10-19T05:44:30.869Z,48.90
2022-10-19T05:46:57.481Z,48.92
2022-10-19T05:49:24.068Z,49.24
2022-10-19T05:51:50.741Z,48.98
2022-10-19T05:54:17.372Z,49.13
2022-10-19T05:56:44.369Z,49.23
2022-10-19T05:59:14.895Z,49.40
2022-10-19T06:01:41.482Z,48.95
2022-10-19T06:04:08.264Z,48.92
2022-10-19T06:06:34.928Z,49.10
2022-10-19T06:09:01.546Z,48.97
2022-10-19T06:11:35.107Z,49.24
2022-10-19T06:14:04.468Z,49.22
2022-10-19T06:16:31.472Z,49.14
2022-10-19T06:18:58.750Z,49.12
2022-10-19T06:21:28.869Z,49.43
2022-10-19T06:24:00.598Z,49.15
2022-10-19T06:26:27.973Z,49.03
2022-10-19T06:28:57.984Z,49.28
2022-10-19T06:31:24.561Z,49.30
2022-10-19T06:33:51.164Z,49.12
2022-10-19T06:36:21.287Z,49.02
2022-10-19T06:38:48.533Z,49.30
2022-10-19T06:41:15.125Z,48.99
2022-10-19T06:43:43.308Z,49.13
2022-10-19T06:46:17.480Z,49.10
2022-10-19T06:48:44.098Z,49.24
2022-10-19T06:51:11.873Z,49.65
2022-10-19T06:53:38.398Z,49.63
2022-10-19T06:56:06.505Z,49.57
2022-10-19T06:58:37.341Z,49.45
2022-10-19T07:01:05.496Z,49.38
2022-10-19T07:03:32.093Z,49.43
2022-10-19T07:06:00.227Z,49.51
2022-10-19T07:08:28.310Z,49.53
2022-10-19T07:10:57.751Z,49.26
2022-10-19T07:13:24.589Z,49.20
2022-10-19T07:15:59.973Z,49.30
2022-10-19T07:18:27.247Z,49.62
2022-10-19T07:20:55.576Z,49.50
2022-10-19T07:23:22.255Z,49.40
2022-10-19T07:25:48.856Z,49.43
2022-10-19T07:28:15.393Z,49.39
2022-10-19T07:30:41.949Z,49.46
2022-10-19T07:33:08.538Z,49.62
2022-10-19T07:35:35.207Z,49.28
2022-10-19T07:38:01.727Z,49.73
2022-10-19T07:40:28.330Z,49.61
2022-10-19T07:42:54.889Z,49.52
2022-10-19T07:45:21.425Z,49.81
2022-10-19T07:47:48.000Z,49.66
2022-10-19T07:50:14.566Z,49.48
2022-10-19T07:52:41.436Z,49.81
2022-10-19T07:55:08.547Z,49.59
2022-10-19T07:57:35.894Z,49.71
2022-10-19T08:00:02.726Z,49.55
2022-10-19T08:02:39.418Z,49.55
2022-10-19T08:05:16.317Z,49.48
2022-10-19T08:07:43.013Z,49.52
2022-10-19T08:10:09.940Z,49.41
2022-10-19T08:12:37.766Z,49.54
2022-10-19T08:15:07.101Z,49.71
2022-10-19T08:17:37.160Z,49.60
2022-10-19T08:20:05.384Z,49.54
2022-10-19T08:22:32.161Z,49.62
2022-10-19T08:24:58.979Z,49.56
2022-10-19T08:27:25.605Z,49.90
2022-10-19T08:29:52.310Z,49.61
2022-10-19T08:32:20.438Z,49.86
2022-10-19T08:34:47.004Z,49.43
2022-10-19T08:37:25.681Z,49.33
2022-10-19T08:40:00.137Z,49.89
2022-10-19T08:42:49.356Z,51.93
2022-10-19T08:45:18.742Z,53.94
2022-10-19T08:47:49.359Z,53.78
2022-10-19T08:50:22.049Z,53.72
2022-10-19T08:52:54.484Z,53.60
2022-10-19T08:55:39.773Z,53.38
2022-10-19T08:58:36.724Z,53.00
2022-10-19T09:01:37.648Z,52.86
2022-10-19T09:04:13.274Z,52.87
2022-10-19T09:07:12.233Z,52.44
2022-10-19T09:09:43.703Z,52.55
2022-10-19T09:12:13.820Z,52.73
2022-10-19T09:14:46.342Z,52.39
2022-10-19T09:17:14.945Z,52.35
2022-10-19T09:19:41.510Z,52.48
2022-10-19T09:22:15.005Z,51.95
2022-10-19T09:24:52.824Z,51.54
2022-10-19T09:27:24.726Z,51.56
2022-10-19T09:29:56.232Z,51.52
2022-10-19T09:32:35.534Z,51.38
2022-10-19T09:35:24.516Z,51.32
2022-10-19T09:37:51.487Z,51.31
2022-10-19T09:40:21.041Z,50.89
2022-10-19T09:42:51.316Z,50.67
2022-10-19T09:45:31.805Z,50.69
2022-10-19T09:48:05.692Z,51.07
2022-10-19T09:50:42.917Z,50.99
2022-10-19T09:53:19.241Z,50.93
2022-10-19T09:58:15.697Z,50.44
2022-10-19T10:00:44.974Z,50.62
2022-10-19T10:03:25.902Z,50.67
2022-10-19T10:05:53.217Z,50.67
2022-10-19T10:08:25.775Z,50.73
2022-10-19T10:11:12.533Z,50.66
2022-10-19T10:13:48.011Z,50.48
2022-10-19T10:16:16.072Z,50.50
2022-10-19T10:18:53.401Z,50.13
2022-10-19T10:21:25.586Z,49.97
2022-10-19T10:24:19.549Z,49.85
2022-10-19T10:26:48.645Z,49.43
2022-10-19T10:29:32.447Z,48.97
2022-10-19T10:32:06.784Z,48.84
2022-10-19T10:34:50.064Z,48.95
2022-10-19T10:37:22.692Z,48.76
2022-10-19T10:40:00.287Z,48.87
2022-10-19T10:42:39.845Z,48.42
2022-10-19T10:45:35.456Z,48.00
2022-10-19T10:48:19.541Z,48.38
2022-10-19T10:50:46.303Z,48.33
2022-10-19T10:53:32.494Z,48.18
2022-10-19T10:55:59.049Z,48.13
2022-10-19T10:59:11.568Z,48.01
2022-10-19T11:01:41.624Z,47.96
2022-10-19T11:04:22.337Z,48.18
2022-10-19T11:06:55.242Z,48.25
2022-10-19T11:09:31.053Z,48.11
2022-10-19T11:12:02.545Z,47.94
2022-10-19T11:14:31.869Z,48.37
2022-10-19T11:17:03.693Z,48.62
2022-10-19T11:19:39.888Z,48.53
2022-10-19T11:22:16.858Z,48.81
2022-10-19T11:24:57.368Z,48.90
2022-10-19T11:27:49.831Z,48.64
2022-10-19T11:30:19.565Z,48.68
2022-10-19T11:33:16.364Z,48.55
2022-10-19T11:35:58.263Z,48.73
2022-10-19T11:41:39.272Z,48.49
2022-10-19T11:44:37.855Z,48.30
2022-10-19T11:47:22.636Z,48.28
2022-10-19T11:52:56.762Z,47.97
2022-10-19T11:55:36.765Z,48.35
2022-10-19T11:58:06.548Z,48.08
2022-10-19T12:00:44.389Z,48.03
2022-10-19T12:03:29.607Z,48.13
2022-10-19T12:06:24.110Z,47.64
2022-10-19T12:09:28.318Z,47.83
2022-10-19T12:12:09.821Z,47.89
2022-10-19T12:14:39.488Z,47.94
2022-10-19T12:17:10.408Z,47.80
2022-10-19T12:19:44.712Z,47.86
2022-10-19T12:22:17.484Z,47.53
2022-10-19T12:24:44.070Z,47.76
2022-10-19T12:27:15.731Z,47.36
2022-10-19T12:29:46.052Z,47.34
2022-10-19T12:32:17.148Z,47.56
2022-10-19T12:34:52.542Z,47.44
2022-10-19T12:37:23.861Z,47.53
2022-10-19T12:40:12.344Z,47.47
2022-10-19T12:43:03.823Z,47.09
2022-10-19T12:45:37.288Z,47.37
2022-10-19T12:48:12.967Z,47.21
2022-10-19T12:50:48.512Z,47.37
2022-10-19T12:56:05.130Z,47.34
2022-10-19T12:58:46.588Z,47.67
2022-10-19T13:01:34.493Z,47.93
2022-10-19T13:04:28.058Z,47.90
2022-10-19T13:06:57.609Z,48.14
2022-10-19T13:09:39.757Z,48.22
2022-10-19T13:12:19.296Z,48.49
2022-10-19T13:15:04.056Z,48.18
2022-10-19T13:17:34.573Z,48.53
2022-10-19T13:20:13.763Z,48.31
2022-10-19T13:22:47.211Z,48.32
2022-10-19T13:25:16.891Z,48.86
2022-10-19T13:27:44.358Z,49.02
2022-10-19T13:30:35.601Z,48.99
2022-10-19T13:33:33.353Z,49.38
2022-10-19T13:35:59.910Z,49.43
2022-10-19T13:38:30.074Z,48.93
2022-10-19T13:41:04.180Z,48.79
2022-10-19T13:43:32.267Z,48.16
2022-10-19T13:46:12.672Z,48.06
2022-10-19T13:49:16.616Z,48.29
2022-10-19T13:52:20.636Z,47.95
2022-10-19T13:55:25.911Z,47.79
2022-10-19T13:58:14.125Z,47.40
2022-10-19T14:00:52.629Z,47.47
2022-10-19T14:03:29.029Z,47.16
2022-10-19T14:06:01.513Z,47.37
2022-10-19T14:08:41.027Z,47.27
2022-10-19T14:11:19.165Z,47.58
2022-10-19T14:13:46.696Z,47.53
2022-10-19T14:16:20.576Z,47.32
2022-10-19T14:18:56.578Z,46.68
2022-10-19T14:21:34.164Z,47.21
2022-10-19T14:24:00.945Z,47.10
2022-10-19T14:26:32.039Z,47.00
2022-10-19T14:28:59.653Z,46.87
2022-10-19T14:31:36.687Z,47.06
2022-10-19T14:34:04.943Z,47.16
2022-10-19T14:36:37.017Z,46.84
2022-10-19T14:39:04.160Z,46.79
2022-10-19T14:41:36.376Z,47.22
2022-10-19T14:44:24.268Z,46.83
2022-10-19T14:46:50.798Z,47.13
2022-10-19T14:49:17.381Z,47.02
2022-10-19T14:51:58.193Z,46.68
2022-10-19T14:54:30.775Z,47.32
2022-10-19T14:57:00.316Z,46.80
2022-10-19T14:59:32.148Z,46.96
2022-10-19T15:02:01.235Z,46.80
2022-10-19T15:04:30.532Z,46.99
2022-10-19T15:06:58.805Z,46.97
2022-10-19T15:09:37.245Z,47.18
2022-10-19T15:12:16.096Z,46.85
2022-10-19T15:14:42.860Z,47.10
2022-10-19T15:17:24.528Z,46.98
2022-10-19T15:19:51.817Z,47.23
2022-10-19T15:22:22.503Z,47.16
2022-10-19T15:25:08.693Z,46.82
2022-10-19T15:27:36.964Z,46.89
2022-10-19T15:30:18.697Z,47.16
2022-10-19T15:32:47.127Z,47.33
2022-10-19T15:35:25.552Z,47.36
2022-10-19T15:38:00.042Z,46.99
2022-10-19T15:40:41.181Z,47.58
2022-10-19T15:43:37.638Z,47.77
2022-10-19T15:46:13.378Z,47.56
2022-10-19T15:48:50.092Z,47.90
2022-10-19T15:51:24.815Z,47.79
2022-10-19T15:53:59.072Z,48.05
2022-10-19T15:56:28.281Z,47.96
2022-10-19T15:58:58.029Z,48.06
2022-10-19T16:01:26.671Z,47.88
2022-10-19T16:03:53.999Z,48.24
2022-10-19T16:06:24.769Z,48.24
2022-10-19T16:08:51.390Z,48.04
2022-10-19T16:11:19.868Z,48.15
2022-10-19T16:13:46.659Z,48.13
2022-10-19T16:16:20.590Z,47.92
2022-10-19T16:18:47.426Z,47.95
2022-10-19T16:21:14.581Z,47.99
2022-10-19T16:23:42.230Z,47.99
2022-10-19T16:26:08.930Z,48.29
2022-10-19T16:28:36.090Z,48.00
2022-10-19T16:31:02.650Z,48.08
2022-10-19T16:33:29.190Z,48.06
2022-10-19T16:35:55.729Z,48.33
2022-10-19T16:38:22.271Z,48.23
2022-10-19T16:40:48.813Z,48.23
2022-10-19T16:43:15.362Z,48.19
2022-10-19T16:45:42.891Z,48.35
2022-10-19T16:48:12.184Z,47.99
2022-10-19T16:50:38.916Z,48.33
2022-10-19T16:53:10.356Z,48.07
2022-10-19T16:55:40.569Z,47.66
2022-10-19T16:58:07.147Z,47.85
2022-10-19T17:00:34.023Z,47.96
2022-10-19T17:03:00.559Z,48.07
2022-10-19T17:05:27.113Z,48.33
2022-10-19T17:07:53.713Z,48.07
2022-10-19T17:10:20.309Z,48.32
2022-10-19T17:12:46.909Z,48.06
2022-10-19T17:18:00.270Z,48.10
2022-10-19T17:20:26.801Z,48.18
2022-10-19T17:22:53.349Z,48.39
2022-10-19T17:25:19.882Z,48.18
2022-10-19T17:27:50.528Z,48.38
2022-10-19T17:30:17.197Z,48.42
2022-10-19T17:32:43.873Z,48.31
2022-10-19T17:35:10.453Z,48.59
2022-10-19T17:37:38.008Z,48.25
2022-10-19T17:40:05.145Z,48.64
2022-10-19T17:42:32.216Z,48.51
2022-10-19T17:44:58.753Z,48.45
2022-10-19T17:47:25.280Z,48.67
2022-10-19T17:49:51.861Z,48.70
2022-10-19T17:52:18.405Z,48.38
2022-10-19T17:54:54.767Z,48.48
2022-10-19T17:57:31.586Z,48.55
2022-10-19T17:59:58.177Z,48.42
2022-10-19T18:02:24.781Z,48.39
2022-10-19T18:04:51.420Z,48.66
2022-10-19T18:07:18.794Z,48.46
2022-10-19T18:09:45.423Z,48.29
2022-10-19T18:12:13.379Z,48.49
2022-10-19T18:14:40.275Z,48.40
2022-10-19T18:17:06.832Z,48.45
2022-10-19T18:19:33.373Z,48.63
2022-10-19T18:21:59.888Z,48.45
2022-10-19T18:24:26.512Z,48.59
2022-10-19T18:26:53.227Z,48.47
2022-10-19T18:29:22.251Z,48.56
2022-10-19T18:31:51.651Z,48.55
2022-10-19T18:34:24.274Z,48.09
2022-10-19T18:36:51.740Z,48.50
2022-10-19T18:39:18.523Z,48.32
2022-10-19T18:41:45.089Z,48.38
2022-10-19T18:44:14.644Z,48.46
2022-10-19T18:46:41.499Z,48.65
2022-10-19T18:49:08.672Z,48.47
2022-10-19T18:51:35.299Z,48.62
2022-10-19T18:54:02.020Z,48.14
2022-10-19T18:56:29.494Z,48.25
2022-10-19T18:58:56.593Z,48.25
2022-10-19T19:01:26.651Z,48.21
2022-10-19T19:03:57.988Z,48.55
2022-10-19T19:06:29.480Z,48.33
2022-10-19T19:08:57.460Z,48.33
2022-10-19T19:11:30.654Z,48.38
2022-10-19T19:14:02.187Z,48.42
2022-10-19T19:16:32.271Z,48.55
2022-10-19T19:18:58.888Z,48.62
2022-10-19T19:21:27.370Z,48.45
2022-10-19T19:23:55.169Z,48.52
2022-10-19T19:26:23.539Z,48.82
2022-10-19T19:28:51.693Z,48.67
2022-10-19T19:31:18.827Z,48.24
2022-10-19T19:33:47.041Z,48.54
2022-10-19T19:36:15.093Z,48.26
2022-10-19T19:38:41.984Z,48.56
2022-10-19T19:41:12.589Z,48.73
2022-10-19T19:43:39.769Z,48.35
2022-10-19T19:46:12.814Z,48.41
2022-10-19T19:48:40.397Z,48.60
2022-10-19T19:51:11.393Z,48.30
2022-10-19T19:53:38.401Z,48.68
2022-10-19T19:56:09.133Z,48.53
2022-10-19T19:58:35.823Z,48.84
2022-10-19T20:01:19.303Z,48.69
2022-10-19T20:03:46.654Z,48.72
2022-10-19T20:06:14.857Z,48.51
2022-10-19T20:08:41.700Z,48.57
2022-10-19T20:11:10.522Z,48.63
2022-10-19T20:13:37.306Z,48.65
2022-10-19T20:16:15.101Z,48.54
2022-10-19T20:18:44.621Z,48.22
2022-10-19T20:21:11.597Z,48.65
2022-10-19T20:23:38.683Z,48.61
2022-10-19T20:26:05.380Z,48.62
2022-10-19T20:28:33.196Z,48.52
2022-10-19T20:31:07.265Z,48.73
2022-10-19T20:33:36.535Z,48.35
2022-10-19T20:36:08.893Z,48.24
2022-10-19T20:38:37.132Z,48.58
2022-10-19T20:41:08.411Z,48.48
2022-10-19T20:43:36.487Z,48.53
2022-10-19T20:46:04.777Z,48.65
2022-10-19T20:48:31.554Z,48.54
2022-10-19T20:51:20.326Z,48.61
2022-10-19T20:53:49.164Z,48.38
2022-10-19T20:56:18.759Z,48.59
2022-10-19T20:58:45.468Z,48.38
2022-10-19T21:01:19.004Z,48.92
2022-10-19T21:04:05.023Z,48.29
2022-10-19T21:06:33.793Z,48.58
2022-10-19T21:09:00.770Z,48.36
2022-10-19T21:11:29.805Z,48.68
2022-10-19T21:13:58.441Z,48.49
2022-10-19T21:16:30.199Z,48.27
2022-10-19T21:18:57.405Z,48.41
2022-10-19T21:21:27.218Z,48.16
2022-10-19T21:23:57.316Z,48.38
2022-10-19T21:26:28.013Z,48.66
2022-10-19T21:28:55.083Z,48.32
2022-10-19T21:31:23.237Z,48.36
2022-10-19T21:33:50.894Z,48.09
2022-10-19T21:36:18.216Z,48.70
2022-10-19T21:38:45.083Z,48.50
2022-10-19T21:41:16.633Z,48.20
2022-10-19T21:43:43.461Z,48.43
2022-10-19T21:46:15.802Z,48.47
2022-10-19T21:48:43.129Z,48.52
2022-10-19T21:51:37.242Z,48.14
2022-10-19T21:54:05.459Z,48.44
2022-10-19T21:56:32.763Z,48.50
2022-10-19T21:58:59.533Z,48.28
2022-10-19T22:01:28.512Z,48.24
2022-10-19T22:04:05.336Z,48.47
2022-10-19T22:06:34.877Z,48.60
2022-10-19T22:09:02.330Z,48.59
2022-10-19T22:11:28.944Z,48.57
2022-10-19T22:13:56.898Z,48.63
2022-10-19T22:16:24.400Z,48.17
2022-10-19T22:18:50.993Z,48.23
2022-10-19T22:21:20.571Z,48.59
2022-10-19T22:24:10.945Z,48.17
2022-10-19T22:26:40.864Z,48.54
2022-10-19T22:29:07.940Z,48.55
2022-10-19T22:31:35.421Z,48.70
2022-10-19T22:34:05.059Z,48.33
2022-10-19T22:36:31.597Z,48.73
2022-10-19T22:38:58.140Z,48.54
2022-10-19T22:42:01.893Z,48.43
2022-10-19T22:44:28.416Z,48.56
2022-10-19T22:46:54.942Z,48.78
2022-10-19T22:49:21.536Z,48.25
2022-10-19T22:51:48.113Z,48.63
2022-10-19T22:54:15.167Z,48.36
2022-10-19T22:56:42.398Z,48.90
2022-10-19T22:59:09.145Z,48.44
2022-10-19T23:01:36.480Z,48.29
2022-10-19T23:04:03.206Z,48.17
2022-10-19T23:06:30.533Z,48.60
2022-10-19T23:08:57.154Z,48.29
2022-10-19T23:11:23.775Z,48.19
2022-10-19T23:13:50.339Z,48.41
2022-10-19T23:16:16.925Z,48.49
2022-10-19T23:18:43.491Z,48.63
2022-10-19T23:21:12.586Z,48.15
2022-10-19T23:23:39.680Z,48.56
2022-10-19T23:26:09.266Z,48.41
2022-10-19T23:28:36.931Z,48.06
2022-10-19T23:31:06.072Z,48.08
2022-10-19T23:33:33.151Z,48.29
2022-10-19T23:36:08.226Z,48.16
2022-10-19T23:38:35.560Z,47.95
2022-10-19T23:41:02.152Z,48.27
2022-10-19T23:43:28.758Z,48.05
2022-10-19T23:45:55.323Z,48.13
2022-10-19T23:48:21.885Z,48.40
2022-10-19T23:50:59.657Z,48.53
2022-10-19T23:53:26.902Z,48.43
2022-10-19T23:56:08.115Z,48.58
2022-10-19T23:58:35.010Z,48.13
